sensor_id;sensor_type;location;lat;lon;timestamp;pressure;altitude;pressure_sealevel;temperature;humidity
9822;BME280;4950;46.042;14.472;2023-01-30T00:01:20;98608.69;;;1.52;68.31
9822;BME280;4950;46.042;14.472;2023-01-30T00:03:47;98614.63;;;1.53;68.96
9822;BME280;4950;46.042;14.472;2023-01-30T00:06:13;98616.16;;;1.55;68.52
9822;BME280;4950;46.042;14.472;2023-01-30T00:08:40;98608.19;;;1.60;68.60
9822;BME280;4950;46.042;14.472;2023-01-30T00:11:08;98599.50;;;1.63;68.05
9822;BME280;4950;46.042;14.472;2023-01-30T00:13:35;98603.69;;;1.64;68.60
9822;BME280;4950;46.042;14.472;2023-01-30T00:16:04;98594.47;;;1.61;69.05
9822;BME280;4950;46.042;14.472;2023-01-30T00:18:31;98594.56;;;1.60;69.08
9822;BME280;4950;46.042;14.472;2023-01-30T00:21:00;98590.72;;;1.67;68.78
9822;BME280;4950;46.042;14.472;2023-01-30T00:23:29;98582.81;;;1.70;68.44
9822;BME280;4950;46.042;14.472;2023-01-30T00:25:56;98578.09;;;1.64;68.33
9822;BME280;4950;46.042;14.472;2023-01-30T00:28:23;98575.25;;;1.68;69.11
9822;BME280;4950;46.042;14.472;2023-01-30T00:30:50;98581.38;;;1.66;68.88
9822;BME280;4950;46.042;14.472;2023-01-30T00:33:19;98582.09;;;1.68;68.92
9822;BME280;4950;46.042;14.472;2023-01-30T00:35:47;98576.38;;;1.64;68.84
9822;BME280;4950;46.042;14.472;2023-01-30T00:38:14;98566.16;;;1.64;68.75
9822;BME280;4950;46.042;14.472;2023-01-30T00:40:41;98562.66;;;1.52;68.96
9822;BME280;4950;46.042;14.472;2023-01-30T00:43:09;98565.72;;;1.57;69.14
9822;BME280;4950;46.042;14.472;2023-01-30T00:45:55;98557.84;;;1.61;68.25
9822;BME280;4950;46.042;14.472;2023-01-30T00:48:41;98558.25;;;1.54;69.11
9822;BME280;4950;46.042;14.472;2023-01-30T00:51:08;98556.28;;;1.58;68.46
9822;BME280;4950;46.042;14.472;2023-01-30T00:53:34;98553.94;;;1.55;68.90
9822;BME280;4950;46.042;14.472;2023-01-30T00:56:01;98551.34;;;1.42;68.23
9822;BME280;4950;46.042;14.472;2023-01-30T00:58:28;98550.00;;;1.36;68.96
9822;BME280;4950;46.042;14.472;2023-01-30T01:00:54;98543.38;;;1.34;69.04
9822;BME280;4950;46.042;14.472;2023-01-30T01:03:21;98537.31;;;1.22;69.79
9822;BME280;4950;46.042;14.472;2023-01-30T01:05:49;98545.78;;;1.23;69.27
9822;BME280;4950;46.042;14.472;2023-01-30T01:08:16;98538.84;;;1.25;69.71
9822;BME280;4950;46.042;14.472;2023-01-30T01:10:42;98535.06;;;1.30;69.86
9822;BME280;4950;46.042;14.472;2023-01-30T01:13:09;98533.22;;;1.32;68.95
9822;BME280;4950;46.042;14.472;2023-01-30T01:15:35;98533.72;;;1.25;69.52
9822;BME280;4950;46.042;14.472;2023-01-30T01:18:02;98527.72;;;1.26;69.60
9822;BME280;4950;46.042;14.472;2023-01-30T01:20:29;98522.19;;;1.32;70.30
9822;BME280;4950;46.042;14.472;2023-01-30T01:22:56;98514.72;;;1.29;70.41
9822;BME280;4950;46.042;14.472;2023-01-30T01:25:24;98519.41;;;1.22;70.48
9822;BME280;4950;46.042;14.472;2023-01-30T01:27:51;98507.25;;;1.26;70.76
9822;BME280;4950;46.042;14.472;2023-01-30T01:30:19;98504.97;;;1.21;70.74
9822;BME280;4950;46.042;14.472;2023-01-30T01:32:45;98501.09;;;1.15;69.83
9822;BME280;4950;46.042;14.472;2023-01-30T01:35:12;98499.13;;;1.19;69.91
9822;BME280;4950;46.042;14.472;2023-01-30T01:37:38;98501.31;;;1.25;70.39
9822;BME280;4950;46.042;14.472;2023-01-30T01:40:09;98496.09;;;1.27;70.39
9822;BME280;4950;46.042;14.472;2023-01-30T01:42:58;98495.09;;;1.29;69.95
9822;BME280;4950;46.042;14.472;2023-01-30T01:45:25;98488.13;;;1.31;70.67
9822;BME280;4950;46.042;14.472;2023-01-30T01:48:00;98482.09;;;1.32;70.52
9822;BME280;4950;46.042;14.472;2023-01-30T01:50:37;98476.88;;;1.34;70.19
9822;BME280;4950;46.042;14.472;2023-01-30T01:53:05;98477.19;;;1.29;69.58
9822;BME280;4950;46.042;14.472;2023-01-30T01:55:34;98473.28;;;1.24;69.75
9822;BME280;4950;46.042;14.472;2023-01-30T01:58:05;98469.78;;;1.25;70.10
9822;BME280;4950;46.042;14.472;2023-01-30T02:00:34;98468.59;;;1.30;70.16
9822;BME280;4950;46.042;14.472;2023-01-30T02:03:04;98468.28;;;1.35;69.41
9822;BME280;4950;46.042;14.472;2023-01-30T02:05:34;98469.38;;;1.31;70.06
9822;BME280;4950;46.042;14.472;2023-01-30T02:08:05;98464.50;;;1.28;69.32
9822;BME280;4950;46.042;14.472;2023-01-30T02:10:40;98466.03;;;1.30;70.38
9822;BME280;4950;46.042;14.472;2023-01-30T02:13:10;98460.81;;;1.32;70.56
9822;BME280;4950;46.042;14.472;2023-01-30T02:15:37;98453.03;;;1.33;69.71
9822;BME280;4950;46.042;14.472;2023-01-30T02:18:03;98456.31;;;1.35;70.39
9822;BME280;4950;46.042;14.472;2023-01-30T02:20:43;98452.25;;;1.33;70.26
9822;BME280;4950;46.042;14.472;2023-01-30T02:23:48;98450.50;;;1.33;70.39
9822;BME280;4950;46.042;14.472;2023-01-30T02:26:46;98447.94;;;1.33;69.83
9822;BME280;4950;46.042;14.472;2023-01-30T02:29:26;98449.75;;;1.18;69.41
9822;BME280;4950;46.042;14.472;2023-01-30T02:32:06;98454.38;;;1.13;69.61
9822;BME280;4950;46.042;14.472;2023-01-30T02:34:44;98441.25;;;1.05;70.05
9822;BME280;4950;46.042;14.472;2023-01-30T02:37:26;98442.03;;;0.93;70.79
9822;BME280;4950;46.042;14.472;2023-01-30T02:40:06;98449.81;;;0.91;69.99
9822;BME280;4950;46.042;14.472;2023-01-30T02:42:38;98450.75;;;0.90;71.15
9822;BME280;4950;46.042;14.472;2023-01-30T02:45:13;98437.00;;;0.78;70.64
9822;BME280;4950;46.042;14.472;2023-01-30T02:47:45;98436.56;;;0.72;71.44
9822;BME280;4950;46.042;14.472;2023-01-30T02:50:19;98433.28;;;0.57;72.57
9822;BME280;4950;46.042;14.472;2023-01-30T02:52:47;98430.50;;;0.60;72.98
9822;BME280;4950;46.042;14.472;2023-01-30T02:55:18;98426.59;;;0.54;72.22
9822;BME280;4950;46.042;14.472;2023-01-30T02:57:45;98424.25;;;0.51;71.60
9822;BME280;4950;46.042;14.472;2023-01-30T03:00:14;98417.09;;;0.44;72.92
9822;BME280;4950;46.042;14.472;2023-01-30T03:03:12;98414.00;;;0.38;73.07
9822;BME280;4950;46.042;14.472;2023-01-30T03:06:23;98417.22;;;0.28;73.38
9822;BME280;4950;46.042;14.472;2023-01-30T03:09:05;98413.31;;;0.22;73.68
9822;BME280;4950;46.042;14.472;2023-01-30T03:11:43;98406.41;;;0.10;74.11
9822;BME280;4950;46.042;14.472;2023-01-30T03:14:17;98406.53;;;0.08;74.43
9822;BME280;4950;46.042;14.472;2023-01-30T03:16:46;98405.50;;;0.11;74.21
9822;BME280;4950;46.042;14.472;2023-01-30T03:19:14;98401.75;;;0.16;74.07
9822;BME280;4950;46.042;14.472;2023-01-30T03:21:44;98394.91;;;0.17;73.86
9822;BME280;4950;46.042;14.472;2023-01-30T03:24:11;98398.72;;;0.24;73.18
9822;BME280;4950;46.042;14.472;2023-01-30T03:26:43;98395.84;;;0.16;73.68
9822;BME280;4950;46.042;14.472;2023-01-30T03:29:10;98393.28;;;0.16;73.59
9822;BME280;4950;46.042;14.472;2023-01-30T03:31:37;98384.75;;;0.03;73.91
9822;BME280;4950;46.042;14.472;2023-01-30T03:34:03;98375.75;;;-0.03;74.01
9822;BME280;4950;46.042;14.472;2023-01-30T03:36:31;98367.78;;;0.02;74.87
9822;BME280;4950;46.042;14.472;2023-01-30T03:38:58;98365.88;;;0.05;74.38
9822;BME280;4950;46.042;14.472;2023-01-30T03:41:24;98363.22;;;0.07;74.59
9822;BME280;4950;46.042;14.472;2023-01-30T03:43:52;98357.31;;;0.06;73.97
9822;BME280;4950;46.042;14.472;2023-01-30T03:46:19;98352.00;;;0.09;74.50
9822;BME280;4950;46.042;14.472;2023-01-30T03:48:45;98350.66;;;0.04;75.50
9822;BME280;4950;46.042;14.472;2023-01-30T03:51:12;98343.00;;;0.04;75.30
9822;BME280;4950;46.042;14.472;2023-01-30T03:53:40;98346.38;;;0.04;74.62
9822;BME280;4950;46.042;14.472;2023-01-30T03:56:06;98342.38;;;0.00;76.04
9822;BME280;4950;46.042;14.472;2023-01-30T03:58:33;98341.84;;;-0.05;76.57
9822;BME280;4950;46.042;14.472;2023-01-30T04:00:59;98336.53;;;-0.02;75.70
9822;BME280;4950;46.042;14.472;2023-01-30T04:03:26;98340.91;;;-0.04;76.20
9822;BME280;4950;46.042;14.472;2023-01-30T04:05:53;98338.38;;;-0.04;75.56
9822;BME280;4950;46.042;14.472;2023-01-30T04:08:19;98329.72;;;-0.02;75.28
9822;BME280;4950;46.042;14.472;2023-01-30T04:10:47;98336.53;;;-0.02;75.78
9822;BME280;4950;46.042;14.472;2023-01-30T04:13:14;98336.66;;;-0.04;75.66
9822;BME280;4950;46.042;14.472;2023-01-30T04:15:40;98330.19;;;-0.09;76.85
9822;BME280;4950;46.042;14.472;2023-01-30T04:18:07;98335.78;;;-0.17;76.66
9822;BME280;4950;46.042;14.472;2023-01-30T04:20:33;98319.03;;;-0.21;76.84
9822;BME280;4950;46.042;14.472;2023-01-30T04:23:00;98319.22;;;-0.24;76.68
9822;BME280;4950;46.042;14.472;2023-01-30T04:25:27;98315.03;;;-0.25;77.11
9822;BME280;4950;46.042;14.472;2023-01-30T04:27:55;98314.31;;;-0.27;77.97
9822;BME280;4950;46.042;14.472;2023-01-30T04:30:21;98320.22;;;-0.27;77.70
9822;BME280;4950;46.042;14.472;2023-01-30T04:32:48;98317.03;;;-0.30;76.88
9822;BME280;4950;46.042;14.472;2023-01-30T04:35:15;98316.50;;;-0.35;77.89
9822;BME280;4950;46.042;14.472;2023-01-30T04:37:41;98310.84;;;-0.26;77.23
9822;BME280;4950;46.042;14.472;2023-01-30T04:40:09;98306.75;;;-0.29;77.16
9822;BME280;4950;46.042;14.472;2023-01-30T04:42:36;98312.66;;;-0.28;77.13
9822;BME280;4950;46.042;14.472;2023-01-30T04:45:05;98305.09;;;-0.30;77.02
9822;BME280;4950;46.042;14.472;2023-01-30T04:47:32;98296.72;;;-0.32;77.21
9822;BME280;4950;46.042;14.472;2023-01-30T04:49:58;98304.75;;;-0.38;77.23
9822;BME280;4950;46.042;14.472;2023-01-30T04:52:25;98303.94;;;-0.38;76.92
9822;BME280;4950;46.042;14.472;2023-01-30T04:54:51;98302.28;;;-0.40;77.35
9822;BME280;4950;46.042;14.472;2023-01-30T04:57:18;98301.56;;;-0.42;77.88
9822;BME280;4950;46.042;14.472;2023-01-30T04:59:44;98296.56;;;-0.43;77.72
9822;BME280;4950;46.042;14.472;2023-01-30T05:02:12;98292.56;;;-0.47;76.80
9822;BME280;4950;46.042;14.472;2023-01-30T05:04:39;98284.75;;;-0.44;78.15
9822;BME280;4950;46.042;14.472;2023-01-30T05:07:05;98291.28;;;-0.40;76.97
9822;BME280;4950;46.042;14.472;2023-01-30T05:09:32;98277.91;;;-0.44;76.90
9822;BME280;4950;46.042;14.472;2023-01-30T05:11:59;98282.59;;;-0.65;76.82
9822;BME280;4950;46.042;14.472;2023-01-30T05:14:25;98275.25;;;-0.84;78.58
9822;BME280;4950;46.042;14.472;2023-01-30T05:16:52;98281.97;;;-0.83;78.62
9822;BME280;4950;46.042;14.472;2023-01-30T05:19:20;98277.59;;;-0.81;78.11
9822;BME280;4950;46.042;14.472;2023-01-30T05:21:46;98279.25;;;-0.94;79.01
9822;BME280;4950;46.042;14.472;2023-01-30T05:24:13;98276.97;;;-0.98;78.27
9822;BME280;4950;46.042;14.472;2023-01-30T05:26:39;98281.53;;;-1.04;78.84
9822;BME280;4950;46.042;14.472;2023-01-30T05:29:06;98281.25;;;-0.99;78.56
9822;BME280;4950;46.042;14.472;2023-01-30T05:31:32;98275.16;;;-0.96;78.75
9822;BME280;4950;46.042;14.472;2023-01-30T05:33:59;98285.44;;;-0.98;78.12
9822;BME280;4950;46.042;14.472;2023-01-30T05:36:27;98281.34;;;-1.01;78.56
9822;BME280;4950;46.042;14.472;2023-01-30T05:38:54;98288.91;;;-0.99;78.23
9822;BME280;4950;46.042;14.472;2023-01-30T05:41:21;98288.72;;;-0.96;77.92
9822;BME280;4950;46.042;14.472;2023-01-30T05:43:48;98292.56;;;-1.03;78.27
9822;BME280;4950;46.042;14.472;2023-01-30T05:46:15;98304.66;;;-1.07;78.42
9822;BME280;4950;46.042;14.472;2023-01-30T05:48:42;98303.09;;;-1.09;78.83
9822;BME280;4950;46.042;14.472;2023-01-30T05:51:14;98308.44;;;-1.14;79.29
9822;BME280;4950;46.042;14.472;2023-01-30T05:53:43;98308.19;;;-1.09;79.25
9822;BME280;4950;46.042;14.472;2023-01-30T05:56:09;98306.91;;;-1.02;78.86
9822;BME280;4950;46.042;14.472;2023-01-30T05:58:36;98307.84;;;-1.03;78.04
9822;BME280;4950;46.042;14.472;2023-01-30T06:01:04;98315.66;;;-1.06;78.47
9822;BME280;4950;46.042;14.472;2023-01-30T06:03:31;98307.84;;;-1.03;78.54
9822;BME280;4950;46.042;14.472;2023-01-30T06:05:59;98312.00;;;-1.02;78.22
9822;BME280;4950;46.042;14.472;2023-01-30T06:08:26;98315.44;;;-1.17;78.18
9822;BME280;4950;46.042;14.472;2023-01-30T06:10:54;98311.34;;;-1.20;79.18
9822;BME280;4950;46.042;14.472;2023-01-30T06:13:24;98318.00;;;-1.17;79.75
9822;BME280;4950;46.042;14.472;2023-01-30T06:15:51;98319.19;;;-1.09;79.08
9822;BME280;4950;46.042;14.472;2023-01-30T06:18:18;98326.56;;;-1.18;78.46
9822;BME280;4950;46.042;14.472;2023-01-30T06:20:46;98319.44;;;-1.13;78.75
9822;BME280;4950;46.042;14.472;2023-01-30T06:23:13;98315.00;;;-1.10;78.20
9822;BME280;4950;46.042;14.472;2023-01-30T06:25:42;98303.06;;;-1.24;78.57
9822;BME280;4950;46.042;14.472;2023-01-30T06:28:10;98297.41;;;-1.43;79.87
9822;BME280;4950;46.042;14.472;2023-01-30T06:30:36;98295.00;;;-1.61;80.69
9822;BME280;4950;46.042;14.472;2023-01-30T06:33:03;98288.88;;;-1.72;81.14
9822;BME280;4950;46.042;14.472;2023-01-30T06:35:30;98281.88;;;-1.83;81.62
9822;BME280;4950;46.042;14.472;2023-01-30T06:37:56;98294.63;;;-1.99;81.84
9822;BME280;4950;46.042;14.472;2023-01-30T06:40:23;98303.63;;;-1.93;82.71
9822;BME280;4950;46.042;14.472;2023-01-30T06:42:49;98306.41;;;-1.82;82.44
9822;BME280;4950;46.042;14.472;2023-01-30T06:45:18;98314.41;;;-1.74;82.34
9822;BME280;4950;46.042;14.472;2023-01-30T06:47:45;98316.53;;;-1.66;81.84
9822;BME280;4950;46.042;14.472;2023-01-30T06:50:12;98320.81;;;-1.67;81.29
9822;BME280;4950;46.042;14.472;2023-01-30T06:52:42;98317.03;;;-1.60;80.84
9822;BME280;4950;46.042;14.472;2023-01-30T06:55:10;98329.13;;;-1.49;81.05
9822;BME280;4950;46.042;14.472;2023-01-30T06:57:37;98324.59;;;-1.44;79.97
9822;BME280;4950;46.042;14.472;2023-01-30T07:00:04;98313.59;;;-1.44;79.91
9822;BME280;4950;46.042;14.472;2023-01-30T07:02:33;98316.88;;;-1.42;80.28
9822;BME280;4950;46.042;14.472;2023-01-30T07:05:00;98308.94;;;-1.52;79.13
9822;BME280;4950;46.042;14.472;2023-01-30T07:07:27;98316.81;;;-1.71;79.75
9822;BME280;4950;46.042;14.472;2023-01-30T07:09:54;98325.13;;;-1.83;80.36
9822;BME280;4950;46.042;14.472;2023-01-30T07:12:20;98335.06;;;-1.94;80.87
9822;BME280;4950;46.042;14.472;2023-01-30T07:14:47;98335.47;;;-1.86;81.37
9822;BME280;4950;46.042;14.472;2023-01-30T07:17:14;98329.59;;;-1.72;82.08
9822;BME280;4950;46.042;14.472;2023-01-30T07:19:42;98327.00;;;-1.56;80.52
9822;BME280;4950;46.042;14.472;2023-01-30T07:22:08;98315.63;;;-1.65;80.56
9822;BME280;4950;46.042;14.472;2023-01-30T07:24:35;98313.91;;;-1.65;81.46
9822;BME280;4950;46.042;14.472;2023-01-30T07:27:02;98307.50;;;-1.56;81.06
9822;BME280;4950;46.042;14.472;2023-01-30T07:29:29;98304.81;;;-1.69;80.66
9822;BME280;4950;46.042;14.472;2023-01-30T07:31:55;98315.06;;;-1.70;80.56
9822;BME280;4950;46.042;14.472;2023-01-30T07:34:22;98306.28;;;-1.65;81.38
9822;BME280;4950;46.042;14.472;2023-01-30T07:36:50;98307.19;;;-1.66;81.29
9822;BME280;4950;46.042;14.472;2023-01-30T07:39:16;98301.31;;;-1.52;81.32
9822;BME280;4950;46.042;14.472;2023-01-30T07:41:43;98289.47;;;-1.53;79.86
9822;BME280;4950;46.042;14.472;2023-01-30T07:44:10;98283.63;;;-1.69;79.32
9822;BME280;4950;46.042;14.472;2023-01-30T07:46:38;98267.50;;;-1.84;79.82
9822;BME280;4950;46.042;14.472;2023-01-30T07:49:05;98273.31;;;-1.82;80.54
9822;BME280;4950;46.042;14.472;2023-01-30T07:51:32;98271.88;;;-1.72;80.25
9822;BME280;4950;46.042;14.472;2023-01-30T07:54:00;98276.03;;;-1.55;80.00
9822;BME280;4950;46.042;14.472;2023-01-30T07:56:28;98289.97;;;-1.46;79.11
9822;BME280;4950;46.042;14.472;2023-01-30T07:58:55;98294.88;;;-1.43;78.84
9822;BME280;4950;46.042;14.472;2023-01-30T08:01:22;98284.31;;;-1.37;78.80
9822;BME280;4950;46.042;14.472;2023-01-30T08:03:49;98279.50;;;-1.27;77.79
9822;BME280;4950;46.042;14.472;2023-01-30T08:06:16;98286.72;;;-1.20;78.36
9822;BME280;4950;46.042;14.472;2023-01-30T08:08:43;98275.09;;;-1.09;78.15
9822;BME280;4950;46.042;14.472;2023-01-30T08:11:13;98289.34;;;-0.92;78.20
9822;BME280;4950;46.042;14.472;2023-01-30T08:13:40;98289.88;;;-0.73;78.15
9822;BME280;4950;46.042;14.472;2023-01-30T08:16:06;98291.41;;;-0.56;77.67
9822;BME280;4950;46.042;14.472;2023-01-30T08:18:34;98279.97;;;-0.36;77.17
9822;BME280;4950;46.042;14.472;2023-01-30T08:21:02;98270.16;;;-0.15;76.39
9822;BME280;4950;46.042;14.472;2023-01-30T08:23:29;98261.53;;;0.01;74.46
9822;BME280;4950;46.042;14.472;2023-01-30T08:25:56;98248.00;;;0.13;73.82
9822;BME280;4950;46.042;14.472;2023-01-30T08:28:25;98252.78;;;0.05;72.84
9822;BME280;4950;46.042;14.472;2023-01-30T08:30:53;98245.03;;;0.06;72.68
9822;BME280;4950;46.042;14.472;2023-01-30T08:33:20;98245.13;;;0.05;72.99
9822;BME280;4950;46.042;14.472;2023-01-30T08:35:46;98238.03;;;-0.05;72.50
9822;BME280;4950;46.042;14.472;2023-01-30T08:38:13;98247.44;;;-0.05;73.26
9822;BME280;4950;46.042;14.472;2023-01-30T08:40:40;98237.06;;;0.11;72.49
9822;BME280;4950;46.042;14.472;2023-01-30T08:43:07;98222.28;;;0.29;71.54
9822;BME280;4950;46.042;14.472;2023-01-30T08:45:35;98209.00;;;0.36;71.05
9822;BME280;4950;46.042;14.472;2023-01-30T08:48:03;98203.50;;;0.43;70.20
9822;BME280;4950;46.042;14.472;2023-01-30T08:50:31;98200.63;;;0.34;70.69
9822;BME280;4950;46.042;14.472;2023-01-30T08:53:02;98192.06;;;0.35;72.01
9822;BME280;4950;46.042;14.472;2023-01-30T08:55:30;98197.78;;;0.52;70.14
9822;BME280;4950;46.042;14.472;2023-01-30T08:57:56;98206.06;;;0.55;70.80
9822;BME280;4950;46.042;14.472;2023-01-30T09:00:23;98208.81;;;0.65;71.03
9822;BME280;4950;46.042;14.472;2023-01-30T09:02:53;98213.31;;;0.74;68.85
9822;BME280;4950;46.042;14.472;2023-01-30T09:05:19;98202.44;;;0.84;68.05
9822;BME280;4950;46.042;14.472;2023-01-30T09:07:46;98201.31;;;0.88;68.56
9822;BME280;4950;46.042;14.472;2023-01-30T09:10:13;98210.72;;;0.87;68.50
9822;BME280;4950;46.042;14.472;2023-01-30T09:12:39;98193.25;;;0.94;67.92
9822;BME280;4950;46.042;14.472;2023-01-30T09:15:07;98190.78;;;0.92;68.48
9822;BME280;4950;46.042;14.472;2023-01-30T09:17:34;98190.97;;;0.89;68.60
9822;BME280;4950;46.042;14.472;2023-01-30T09:20:04;98202.53;;;0.95;68.08
9822;BME280;4950;46.042;14.472;2023-01-30T09:22:31;98187.41;;;0.92;67.95
9822;BME280;4950;46.042;14.472;2023-01-30T09:24:57;98191.59;;;0.93;67.49
9822;BME280;4950;46.042;14.472;2023-01-30T09:27:24;98181.28;;;0.94;68.05
9822;BME280;4950;46.042;14.472;2023-01-30T09:29:51;98180.03;;;0.87;66.99
9822;BME280;4950;46.042;14.472;2023-01-30T09:32:17;98176.06;;;0.83;68.46
9822;BME280;4950;46.042;14.472;2023-01-30T09:34:44;98180.84;;;0.88;67.21
9822;BME280;4950;46.042;14.472;2023-01-30T09:37:12;98177.13;;;0.81;68.09
9822;BME280;4950;46.042;14.472;2023-01-30T09:39:38;98187.84;;;0.60;67.97
9822;BME280;4950;46.042;14.472;2023-01-30T09:42:24;98195.09;;;0.66;68.31
9822;BME280;4950;46.042;14.472;2023-01-30T09:45:12;98196.72;;;0.80;68.65
9822;BME280;4950;46.042;14.472;2023-01-30T09:47:46;98204.38;;;0.93;68.60
9822;BME280;4950;46.042;14.472;2023-01-30T09:50:32;98196.78;;;1.04;68.69
9822;BME280;4950;46.042;14.472;2023-01-30T09:53:08;98180.59;;;1.16;67.74
9822;BME280;4950;46.042;14.472;2023-01-30T09:55:39;98167.63;;;1.31;67.07
9822;BME280;4950;46.042;14.472;2023-01-30T09:58:14;98161.16;;;1.38;66.21
9822;BME280;4950;46.042;14.472;2023-01-30T10:00:41;98141.91;;;1.45;66.85
9822;BME280;4950;46.042;14.472;2023-01-30T10:03:10;98130.63;;;1.48;66.59
9822;BME280;4950;46.042;14.472;2023-01-30T10:05:42;98137.91;;;1.65;65.83
9822;BME280;4950;46.042;14.472;2023-01-30T10:08:33;98138.41;;;1.70;65.42
9822;BME280;4950;46.042;14.472;2023-01-30T10:11:09;98128.78;;;1.85;64.59
9822;BME280;4950;46.042;14.472;2023-01-30T10:13:47;98120.78;;;1.90;64.37
9822;BME280;4950;46.042;14.472;2023-01-30T10:16:23;98114.03;;;2.00;65.00
9822;BME280;4950;46.042;14.472;2023-01-30T10:19:10;98114.16;;;2.10;64.34
9822;BME280;4950;46.042;14.472;2023-01-30T10:21:46;98107.41;;;2.20;63.59
9822;BME280;4950;46.042;14.472;2023-01-30T10:24:28;98092.38;;;2.04;64.61
9822;BME280;4950;46.042;14.472;2023-01-30T10:26:59;98092.88;;;2.09;64.58
9822;BME280;4950;46.042;14.472;2023-01-30T10:29:29;98081.22;;;2.16;64.18
9822;BME280;4950;46.042;14.472;2023-01-30T10:32:00;98072.03;;;2.25;63.29
9822;BME280;4950;46.042;14.472;2023-01-30T10:34:31;98078.78;;;2.15;63.41
9822;BME280;4950;46.042;14.472;2023-01-30T10:37:03;98081.34;;;2.26;64.01
9822;BME280;4950;46.042;14.472;2023-01-30T10:39:40;98069.22;;;2.40;64.43
9822;BME280;4950;46.042;14.472;2023-01-30T10:42:10;98061.25;;;2.76;62.78
9822;BME280;4950;46.042;14.472;2023-01-30T10:44:39;98067.94;;;3.00;62.02
9822;BME280;4950;46.042;14.472;2023-01-30T10:47:21;98047.50;;;3.10;61.41
9822;BME280;4950;46.042;14.472;2023-01-30T10:49:52;98025.47;;;3.19;60.78
9822;BME280;4950;46.042;14.472;2023-01-30T10:52:35;98011.88;;;3.28;60.29
9822;BME280;4950;46.042;14.472;2023-01-30T10:55:14;98006.94;;;3.36;60.14
9822;BME280;4950;46.042;14.472;2023-01-30T10:57:52;97994.03;;;3.47;59.54
9822;BME280;4950;46.042;14.472;2023-01-30T11:00:27;97990.59;;;3.37;59.56
9822;BME280;4950;46.042;14.472;2023-01-30T11:03:18;97975.31;;;3.35;60.13
9822;BME280;4950;46.042;14.472;2023-01-30T11:05:48;97980.44;;;3.56;59.74
9822;BME280;4950;46.042;14.472;2023-01-30T11:08:21;97979.72;;;3.75;60.21
9822;BME280;4950;46.042;14.472;2023-01-30T11:10:50;97967.09;;;3.93;59.05
9822;BME280;4950;46.042;14.472;2023-01-30T11:13:18;97961.19;;;4.03;58.06
9822;BME280;4950;46.042;14.472;2023-01-30T11:15:47;97960.38;;;4.12;57.91
9822;BME280;4950;46.042;14.472;2023-01-30T11:18:15;97958.38;;;4.15;57.50
9822;BME280;4950;46.042;14.472;2023-01-30T11:20:45;97951.09;;;4.30;57.18
9822;BME280;4950;46.042;14.472;2023-01-30T11:23:23;97939.09;;;4.50;56.56
9822;BME280;4950;46.042;14.472;2023-01-30T11:25:54;97933.56;;;4.55;57.10
9822;BME280;4950;46.042;14.472;2023-01-30T11:28:23;97921.38;;;4.57;56.51
9822;BME280;4950;46.042;14.472;2023-01-30T11:30:53;97910.81;;;4.60;56.58
9822;BME280;4950;46.042;14.472;2023-01-30T11:33:23;97898.09;;;4.68;56.33
9822;BME280;4950;46.042;14.472;2023-01-30T11:35:58;97903.41;;;4.67;56.10
9822;BME280;4950;46.042;14.472;2023-01-30T11:38:27;97903.91;;;4.70;56.61
9822;BME280;4950;46.042;14.472;2023-01-30T11:41:04;97896.72;;;4.84;56.08
9822;BME280;4950;46.042;14.472;2023-01-30T11:43:32;97897.66;;;5.02;55.35
9822;BME280;4950;46.042;14.472;2023-01-30T11:45:59;97896.25;;;5.27;55.50
9822;BME280;4950;46.042;14.472;2023-01-30T11:48:28;97899.84;;;5.72;54.66
9822;BME280;4950;46.042;14.472;2023-01-30T11:50:59;97891.06;;;6.02;53.93
9822;BME280;4950;46.042;14.472;2023-01-30T11:53:32;97897.28;;;6.27;52.25
9822;BME280;4950;46.042;14.472;2023-01-30T11:56:05;97882.75;;;6.44;51.68
9822;BME280;4950;46.042;14.472;2023-01-30T11:58:36;97865.44;;;6.72;52.16
9822;BME280;4950;46.042;14.472;2023-01-30T12:01:04;97856.28;;;7.04;50.67
9822;BME280;4950;46.042;14.472;2023-01-30T12:03:41;97832.59;;;7.43;49.97
9822;BME280;4950;46.042;14.472;2023-01-30T12:06:10;97806.59;;;7.79;48.57
9822;BME280;4950;46.042;14.472;2023-01-30T12:08:39;97796.91;;;7.89;47.63
9822;BME280;4950;46.042;14.472;2023-01-30T12:11:26;97806.16;;;8.17;47.48
9822;BME280;4950;46.042;14.472;2023-01-30T12:13:54;97813.09;;;8.24;47.17
9822;BME280;4950;46.042;14.472;2023-01-30T12:16:25;97801.63;;;8.19;47.41
9822;BME280;4950;46.042;14.472;2023-01-30T12:19:02;97802.09;;;8.14;47.68
9822;BME280;4950;46.042;14.472;2023-01-30T12:21:37;97794.66;;;8.36;46.68
9822;BME280;4950;46.042;14.472;2023-01-30T12:24:15;97781.13;;;8.42;46.40
9822;BME280;4950;46.042;14.472;2023-01-30T12:26:52;97776.75;;;8.42;46.08
9822;BME280;4950;46.042;14.472;2023-01-30T12:29:23;97777.72;;;8.41;46.71
9822;BME280;4950;46.042;14.472;2023-01-30T12:32:01;97779.63;;;8.72;46.11
9822;BME280;4950;46.042;14.472;2023-01-30T12:34:30;97778.66;;;8.81;45.53
9822;BME280;4950;46.042;14.472;2023-01-30T12:37:05;97771.47;;;9.00;45.09
9822;BME280;4950;46.042;14.472;2023-01-30T12:39:43;97744.91;;;9.14;44.19
9822;BME280;4950;46.042;14.472;2023-01-30T12:42:27;97732.53;;;9.56;43.61
9822;BME280;4950;46.042;14.472;2023-01-30T12:45:14;97717.09;;;9.85;43.71
9822;BME280;4950;46.042;14.472;2023-01-30T12:48:03;97712.44;;;10.04;43.22
9822;BME280;4950;46.042;14.472;2023-01-30T12:50:42;97728.94;;;10.26;42.36
9822;BME280;4950;46.042;14.472;2023-01-30T12:53:24;97732.34;;;10.26;42.61
9822;BME280;4950;46.042;14.472;2023-01-30T12:56:01;97720.16;;;10.27;42.36
9822;BME280;4950;46.042;14.472;2023-01-30T12:58:38;97719.34;;;10.50;42.96
9822;BME280;4950;46.042;14.472;2023-01-30T13:01:17;97714.00;;;10.96;41.79
9822;BME280;4950;46.042;14.472;2023-01-30T13:03:52;97712.88;;;11.05;41.46
9822;BME280;4950;46.042;14.472;2023-01-30T13:06:43;97708.31;;;11.22;40.46
9822;BME280;4950;46.042;14.472;2023-01-30T13:09:30;97706.22;;;11.32;41.18
9822;BME280;4950;46.042;14.472;2023-01-30T13:12:06;97713.88;;;11.55;41.13
9822;BME280;4950;46.042;14.472;2023-01-30T13:14:42;97710.28;;;11.56;40.45
9822;BME280;4950;46.042;14.472;2023-01-30T13:17:25;97701.66;;;11.77;39.65
9822;BME280;4950;46.042;14.472;2023-01-30T13:20:02;97699.34;;;12.04;39.13
9822;BME280;4950;46.042;14.472;2023-01-30T13:22:36;97703.09;;;11.58;40.10
9822;BME280;4950;46.042;14.472;2023-01-30T13:25:14;97695.47;;;11.57;39.66
9822;BME280;4950;46.042;14.472;2023-01-30T13:27:51;97703.63;;;11.32;40.18
9822;BME280;4950;46.042;14.472;2023-01-30T13:30:23;97695.78;;;11.11;40.59
9822;BME280;4950;46.042;14.472;2023-01-30T13:32:53;97694.19;;;10.80;40.85
9822;BME280;4950;46.042;14.472;2023-01-30T13:35:26;97685.22;;;10.97;41.35